Time;durP1;ratioP1;P1;durP2;ratioP2;P2;SDS_P1;SDS_P2;PMS_P1;PMS_P2;Temp;Humidity;BMP_temperature;BMP_pressure;BME280_temperature;BME280_humidity;BME280_pressure;Samples;Min_cycle;Max_cycle;Signal;HPM_P1;HPM_P2
2022/05/06 00:02:07;;;;;;;33.60;13.50;;;9.90;99.90;;;;;;5052057;28;20137;-75
2022/05/06 00:04:33;;;;;;;45.88;16.02;;;9.90;99.90;;;;;;5052344;28;20485;-74
2022/05/06 00:06:59;;;;;;;39.67;15.00;;;9.80;99.90;;;;;;5034976;28;20060;-74
2022/05/06 00:09:24;;;;;;;38.15;14.65;;;9.80;99.90;;;;;;5051534;28;20052;-74
2022/05/06 00:11:51;;;;;;;42.95;15.68;;;9.80;99.90;;;;;;5052646;28;20037;-75
2022/05/06 00:14:18;;;;;;;38.05;15.02;;;9.70;99.90;;;;;;5051022;28;20107;-74
2022/05/06 00:16:44;;;;;;;42.20;14.48;;;9.60;99.90;;;;;;5052525;28;20102;-74
2022/05/06 00:19:10;;;;;;;36.60;14.70;;;9.50;99.90;;;;;;5052268;28;20057;-74
2022/05/06 00:21:36;;;;;;;44.25;15.43;;;9.60;99.90;;;;;;5051338;28;20049;-75
2022/05/06 00:24:05;;;;;;;40.17;15.80;;;9.50;99.90;;;;;;5034969;28;20101;-76
2022/05/06 00:26:31;;;;;;;39.28;15.43;;;9.50;99.90;;;;;;5052366;28;20063;-75
2022/05/06 00:28:57;;;;;;;41.17;14.10;;;9.40;99.90;;;;;;5051431;28;20433;-75
2022/05/06 00:31:22;;;;;;;46.53;15.52;;;9.40;99.90;;;;;;5052017;28;20160;-74
2022/05/06 00:33:48;;;;;;;35.40;14.40;;;9.40;99.90;;;;;;5051366;28;20045;-75
2022/05/06 00:36:15;;;;;;;37.22;15.18;;;9.30;99.90;;;;;;5051405;28;20045;-75
2022/05/06 00:38:44;;;;;;;41.53;14.93;;;9.30;99.90;;;;;;5052363;28;20044;-75
2022/05/06 00:41:09;;;;;;;41.22;15.38;;;9.20;99.90;;;;;;5050996;28;20060;-75
2022/05/06 00:43:42;;;;;;;42.42;15.35;;;9.20;99.90;;;;;;5050662;28;20136;-76
2022/05/06 00:46:13;;;;;;;39.90;15.02;;;9.30;99.90;;;;;;5051051;28;20512;-75
2022/05/06 00:48:42;;;;;;;39.75;15.05;;;9.20;99.90;;;;;;5052869;28;20036;-75
2022/05/06 00:51:09;;;;;;;39.05;15.15;;;9.20;99.90;;;;;;5051371;28;20160;-74
2022/05/06 00:53:36;;;;;;;38.35;14.73;;;9.20;99.90;;;;;;5051153;28;20052;-75
2022/05/06 00:56:03;;;;;;;43.13;14.82;;;9.20;99.90;;;;;;5052032;28;20053;-75
2022/05/06 00:58:31;;;;;;;40.03;15.25;;;9.10;99.90;;;;;;5051622;28;20246;-76
2022/05/06 01:00:57;;;;;;;41.67;15.80;;;9.00;99.90;;;;;;5050904;28;20073;-75
2022/05/06 01:03:23;;;;;;;45.80;16.58;;;9.00;99.90;;;;;;5050809;28;20087;-75
2022/05/06 01:05:49;;;;;;;40.30;15.32;;;8.90;99.90;;;;;;5051440;28;20485;-75
2022/05/06 01:08:16;;;;;;;46.22;16.38;;;8.80;99.90;;;;;;5051571;28;20064;-75
2022/05/06 01:10:43;;;;;;;47.70;17.02;;;8.80;99.90;;;;;;5051908;28;20041;-75
2022/05/06 01:13:09;;;;;;;42.50;16.73;;;8.80;99.90;;;;;;5052220;28;20060;-74
2022/05/06 01:15:36;;;;;;;53.13;16.52;;;8.80;99.90;;;;;;5051933;28;20497;-75
2022/05/06 01:18:02;;;;;;;46.13;16.98;;;8.80;99.90;;;;;;5067821;28;20049;-75
2022/05/06 01:20:28;;;;;;;50.63;17.73;;;8.70;99.90;;;;;;5050531;28;20053;-75
2022/05/06 01:22:58;;;;;;;46.50;17.50;;;8.70;99.90;;;;;;5052354;28;20556;-75
2022/05/06 01:25:24;;;;;;;46.20;17.70;;;8.70;99.90;;;;;;5050736;28;20060;-75
2022/05/06 01:27:50;;;;;;;42.95;16.75;;;8.70;99.90;;;;;;5053385;28;20389;-75
2022/05/06 01:30:37;;;;;;;49.88;16.92;;;8.70;99.90;;;;;;5055637;28;20045;-75
2022/05/06 01:33:05;;;;;;;40.10;16.42;;;8.70;99.90;;;;;;5054798;28;20053;-76
2022/05/06 01:35:40;;;;;;;44.15;17.55;;;8.60;99.90;;;;;;5054635;28;20147;-75
2022/05/06 01:38:06;;;;;;;50.65;17.35;;;8.70;99.90;;;;;;5054555;28;20044;-75
2022/05/06 01:40:39;;;;;;;52.97;17.35;;;8.70;99.90;;;;;;5055037;28;20496;-75
2022/05/06 01:43:10;;;;;;;51.38;17.55;;;8.60;99.90;;;;;;5055925;28;20068;-75
2022/05/06 01:45:37;;;;;;;46.65;17.50;;;8.60;99.90;;;;;;5054634;28;20119;-75
2022/05/06 01:48:04;;;;;;;50.13;16.90;;;8.60;99.90;;;;;;5055325;28;20083;-75
2022/05/06 01:50:38;;;;;;;44.40;15.90;;;8.60;99.90;;;;;;5055914;28;20131;-75
2022/05/06 01:53:07;;;;;;;47.15;17.48;;;8.60;99.90;;;;;;5054625;28;20048;-74
2022/05/06 01:55:33;;;;;;;54.75;18.45;;;8.50;99.90;;;;;;5053877;28;20057;-74
2022/05/06 01:57:59;;;;;;;45.33;17.30;;;8.50;99.90;;;;;;5053948;28;20508;-75
2022/05/06 02:00:25;;;;;;;48.88;15.90;;;8.50;99.90;;;;;;5070976;28;20049;-77
2022/05/06 02:02:51;;;;;;;43.70;17.73;;;8.40;99.90;;;;;;5055784;28;20060;-75
2022/05/06 02:05:17;;;;;;;44.60;17.02;;;8.30;99.90;;;;;;5053972;28;20036;-75
2022/05/06 02:07:48;;;;;;;47.10;18.27;;;8.20;99.90;;;;;;5037742;28;20052;-75
2022/05/06 02:10:17;;;;;;;42.00;16.83;;;8.20;99.90;;;;;;5054843;28;20183;-75
2022/05/06 02:12:47;;;;;;;43.90;16.77;;;8.10;99.90;;;;;;5054637;28;20041;-75
2022/05/06 02:15:14;;;;;;;43.25;16.45;;;8.00;99.90;;;;;;5054956;28;20135;-75
2022/05/06 02:17:39;;;;;;;;;;;7.90;99.90;;;;;;5054883;28;20503;-75
2022/05/06 02:20:07;;;;;;;40.70;15.17;;;7.90;99.90;;;;;;5069884;28;19975;-75
2022/05/06 02:22:33;;;;;;;43.90;16.40;;;7.80;99.90;;;;;;5070532;28;20470;-76
2022/05/06 02:24:59;;;;;;;42.38;15.27;;;7.80;99.90;;;;;;5054849;28;20497;-75
2022/05/06 02:27:25;;;;;;;43.00;16.05;;;7.80;99.90;;;;;;5053161;28;20075;-75
2022/05/06 02:35:20;;;;;;;41.25;15.45;;;7.80;99.90;;;;;;5039634;28;20491;-75
2022/05/06 02:37:45;;;;;;;45.55;16.80;;;7.70;99.90;;;;;;5036267;28;20106;-75
2022/05/06 02:40:12;;;;;;;47.50;17.63;;;7.80;99.90;;;;;;5052761;28;20048;-75
2022/05/06 02:42:37;;;;;;;44.47;16.42;;;7.70;99.90;;;;;;5053653;28;20438;-75
2022/05/06 02:45:04;;;;;;;44.88;17.30;;;7.70;99.90;;;;;;5052824;28;20127;-76
2022/05/06 02:47:30;;;;;;;48.47;17.13;;;7.70;99.90;;;;;;5069585;28;20080;-76
2022/05/06 02:49:56;;;;;;;46.13;16.13;;;7.60;99.90;;;;;;5054337;28;20194;-74
2022/05/06 02:52:23;;;;;;;45.13;14.63;;;7.60;99.90;;;;;;5053899;28;20048;-74
2022/05/06 02:54:49;;;;;;;45.63;15.93;;;7.50;99.90;;;;;;5036374;28;20523;-75
2022/05/06 02:57:15;;;;;;;40.25;14.63;;;7.50;99.90;;;;;;5054309;28;20148;-75
2022/05/06 02:59:41;;;;;;;44.72;16.50;;;7.50;99.90;;;;;;5036038;28;20045;-75
2022/05/06 03:02:07;;;;;;;45.40;16.92;;;7.50;99.90;;;;;;5052561;28;20049;-75
2022/05/06 03:04:33;;;;;;;41.40;16.48;;;7.50;99.90;;;;;;5052540;28;20056;-76
2022/05/06 03:07:00;;;;;;;44.60;15.52;;;7.60;99.90;;;;;;5052678;28;20053;-76
2022/05/06 03:09:26;;;;;;;41.40;15.40;;;7.50;99.90;;;;;;5052339;28;20053;-75
2022/05/06 03:11:52;;;;;;;41.53;15.55;;;7.50;99.90;;;;;;5052650;28;20427;-74
2022/05/06 03:14:18;;;;;;;42.17;15.77;;;7.40;99.90;;;;;;5053854;28;20095;-74
2022/05/06 03:16:44;;;;;;;42.13;15.68;;;7.50;99.90;;;;;;5052326;28;20099;-75
2022/05/06 03:19:10;;;;;;;44.38;16.02;;;7.40;99.90;;;;;;5051684;28;20093;-74
2022/05/06 03:21:36;;;;;;;39.95;14.23;;;7.40;99.90;;;;;;5053142;28;20081;-74
2022/05/06 03:24:02;;;;;;;33.58;13.88;;;7.40;99.90;;;;;;5053351;28;20087;-75
2022/05/06 03:26:27;;;;;;;39.00;14.63;;;7.30;99.90;;;;;;5052729;28;20045;-74
2022/05/06 03:28:57;;;;;;;37.97;14.43;;;;;;;;;;5052339;28;20041;-75
2022/05/06 03:31:25;;;;;;;35.72;13.57;;;7.10;99.90;;;;;;5052004;28;20049;-74
2022/05/06 03:33:54;;;;;;;38.00;14.73;;;7.10;99.90;;;;;;5052122;28;20146;-76
2022/05/06 03:36:21;;;;;;;39.58;14.05;;;7.00;99.90;;;;;;5052786;28;20142;-76
2022/05/06 03:38:47;;;;;;;33.15;13.20;;;7.00;99.90;;;;;;5052723;28;20048;-75
2022/05/06 03:41:13;;;;;;;34.13;13.43;;;7.00;99.90;;;;;;5051893;28;20044;-76
2022/05/06 03:43:38;;;;;;;31.25;11.68;;;6.90;99.90;;;;;;5053018;28;20091;-76
2022/05/06 03:46:04;;;;;;;34.28;13.40;;;7.00;99.90;;;;;;5052575;28;20107;-75
2022/05/06 03:48:30;;;;;;;39.17;13.95;;;6.90;99.90;;;;;;5052811;28;20041;-76
2022/05/06 03:53:40;;;;;;;28.80;12.20;;;6.90;99.90;;;;;;5051958;28;20075;-75
2022/05/06 03:56:06;;;;;;;35.67;13.38;;;6.90;99.90;;;;;;5051406;28;20541;-75
2022/05/06 03:58:32;;;;;;;35.13;13.02;;;6.90;99.90;;;;;;5051339;28;20052;-75
2022/05/06 04:00:58;;;;;;;32.92;12.73;;;6.90;99.90;;;;;;5051609;28;20045;-75
2022/05/06 04:03:24;;;;;;;31.70;12.60;;;6.90;99.90;;;;;;5052620;28;20557;-74
2022/05/06 04:05:50;;;;;;;34.50;14.75;;;6.80;99.90;;;;;;5051344;28;20052;-75
2022/05/06 04:08:16;;;;;;;38.75;13.25;;;6.80;99.90;;;;;;5052211;28;20053;-75
2022/05/06 04:10:42;;;;;;;32.95;13.05;;;6.80;99.90;;;;;;5050951;28;20056;-75
2022/05/06 04:13:07;;;;;;;40.00;14.10;;;6.80;99.90;;;;;;5052658;28;20045;-75
2022/05/06 04:15:33;;;;;;;34.95;14.95;;;6.90;99.90;;;;;;5052389;28;20045;-77
2022/05/06 04:18:01;;;;;;;38.42;14.02;;;6.90;99.90;;;;;;5051877;28;20091;-76
2022/05/06 04:23:29;;;;;;;40.58;14.63;;;7.00;99.90;;;;;;5052632;28;20531;-77
2022/05/06 04:26:03;;;;;;;42.08;14.38;;;7.10;99.90;;;;;;5021165;28;20382;-77
2022/05/06 04:28:31;;;;;;;36.53;13.38;;;7.10;99.90;;;;;;5051653;28;20126;-77
2022/05/06 04:30:57;;;;;;;;;;;7.20;99.90;;;;;;5068363;28;20051;-76
2022/05/06 04:33:25;;;;;;;37.63;14.33;;;7.30;99.90;;;;;;5051181;28;20015;-75
2022/05/06 04:35:51;;;;;;;31.80;14.00;;;7.40;99.90;;;;;;5052116;28;20044;-76
2022/05/06 04:38:17;;;;;;;38.57;14.00;;;7.50;99.90;;;;;;5051139;28;20079;-76
2022/05/06 04:40:43;;;;;;;34.22;13.52;;;7.70;99.90;;;;;;5051206;28;20283;-76
2022/05/06 04:43:10;;;;;;;30.42;11.80;;;7.80;99.90;;;;;;5067532;28;20060;-75
2022/05/06 04:45:43;;;;;;;31.02;11.82;;;7.90;99.90;;;;;;5050643;28;20045;-77
2022/05/06 04:48:11;;;;;;;30.05;12.18;;;8.00;99.90;;;;;;5052059;28;20111;-76
2022/05/06 04:50:39;;;;;;;28.23;12.88;;;8.00;99.90;;;;;;5051198;28;20037;-74
2022/05/06 04:53:07;;;;;;;25.42;10.75;;;7.90;99.90;;;;;;5051958;28;20151;-75
2022/05/06 04:55:43;;;;;;;24.52;11.20;;;7.70;99.90;;;;;;5033570;28;20045;-74
2022/05/06 04:58:09;;;;;;;26.77;11.18;;;7.70;99.90;;;;;;5051459;28;20125;-76
2022/05/06 05:00:36;;;;;;;26.37;11.50;;;7.70;99.90;;;;;;5051445;28;20481;-73
2022/05/06 05:03:02;;;;;;;27.90;11.37;;;7.80;99.90;;;;;;5054887;28;20051;-76
2022/05/06 05:05:29;;;;;;;26.77;11.07;;;7.80;99.90;;;;;;5056023;28;20045;-76
2022/05/06 05:07:55;;;;;;;28.30;11.70;;;7.80;99.90;;;;;;5054804;28;20489;-75
2022/05/06 05:10:22;;;;;;;32.70;12.97;;;7.90;99.90;;;;;;5055048;28;20044;-75
2022/05/06 05:12:47;;;;;;;29.57;13.10;;;7.90;99.90;;;;;;5055742;28;20139;-76
2022/05/06 05:15:15;;;;;;;29.67;12.63;;;8.00;99.90;;;;;;5054449;28;20139;-75
2022/05/06 05:17:44;;;;;;;28.23;11.93;;;8.00;99.90;;;;;;5055558;28;20041;-75
2022/05/06 05:20:11;;;;;;;44.22;15.35;;;8.00;99.90;;;;;;5055150;28;20096;-74
2022/05/06 05:22:37;;;;;;;53.40;18.52;;;8.10;99.90;;;;;;5055516;28;20045;-74
2022/05/06 05:25:06;;;;;;;48.30;16.88;;;8.20;99.90;;;;;;5055450;28;20106;-75
2022/05/06 05:27:33;;;;;;;56.17;19.42;;;8.20;99.90;;;;;;5055585;28;20045;-74
2022/05/06 05:29:59;;;;;;;;;;;8.30;99.90;;;;;;5055724;28;20481;-76
2022/05/06 05:32:26;;;;;;;46.40;16.90;;;8.50;99.90;;;;;;5055337;28;19967;-74
2022/05/06 05:34:52;;;;;;;44.20;15.45;;;8.70;99.90;;;;;;5055071;28;20128;-76
2022/05/06 05:37:18;;;;;;;53.78;14.65;;;8.80;99.90;;;;;;5055112;28;20132;-75
2022/05/06 05:39:44;;;;;;;53.05;16.80;;;9.00;99.90;;;;;;5054606;28;20474;-74
2022/05/06 05:42:10;;;;;;;52.83;16.70;;;9.10;99.90;;;;;;5053785;28;20127;-75
2022/05/06 05:50:05;;;;;;;43.45;13.02;;;9.50;99.90;;;;;;5055515;28;20059;-74
2022/05/06 05:52:31;;;;;;;41.00;12.45;;;9.50;99.90;;;;;;5054938;28;20537;-74
2022/05/06 05:54:57;;;;;;;38.35;12.20;;;9.70;99.90;;;;;;5054477;28;20140;-74
2022/05/06 05:57:23;;;;;;;37.03;11.07;;;9.70;99.90;;;;;;5054336;28;20124;-75
2022/05/06 05:59:48;;;;;;;45.47;11.13;;;9.70;99.90;;;;;;5036634;28;20056;-74
2022/05/06 06:02:16;;;;;;;50.03;11.63;;;;;;;;;;5053367;28;20118;-75
2022/05/06 06:04:43;;;;;;;66.93;11.38;;;9.90;99.90;;;;;;5054150;28;20136;-75
2022/05/06 06:07:09;;;;;;;49.65;11.82;;;10.00;99.90;;;;;;5054682;28;20056;-74
2022/05/06 06:09:35;;;;;;;45.92;12.85;;;10.00;99.90;;;;;;5053417;28;20087;-75
2022/05/06 06:12:01;;;;;;;57.42;12.55;;;10.30;99.90;;;;;;5054348;28;20037;-74
2022/05/06 06:14:26;;;;;;;37.78;12.48;;;10.40;99.90;;;;;;5052882;28;20049;-74
2022/05/06 06:16:52;;;;;;;38.33;12.90;;;10.60;99.90;;;;;;5054480;28;20037;-74
2022/05/06 06:19:18;;;;;;;39.25;13.45;;;10.80;99.90;;;;;;5053191;28;20089;-74
2022/05/06 06:21:44;;;;;;;39.42;13.70;;;10.90;99.90;;;;;;5054679;28;20045;-75
2022/05/06 06:24:10;;;;;;;43.58;14.57;;;10.90;99.90;;;;;;5053570;28;20053;-75
2022/05/06 06:26:36;;;;;;;41.00;13.95;;;11.00;99.90;;;;;;5054872;28;20056;-75
2022/05/06 06:29:03;;;;;;;45.22;15.30;;;11.00;99.90;;;;;;5055039;28;20124;-74
2022/05/06 06:31:31;;;;;;;46.25;15.25;;;11.10;99.90;;;;;;5052906;28;20044;-74
2022/05/06 06:33:58;;;;;;;45.20;16.48;;;11.00;99.90;;;;;;5054758;28;20114;-77
2022/05/06 06:36:24;;;;;;;41.42;14.95;;;11.20;99.90;;;;;;5054089;28;20133;-76
2022/05/06 06:38:50;;;;;;;44.67;15.35;;;11.30;99.90;;;;;;5052707;28;20045;-76
2022/05/06 06:41:16;;;;;;;52.65;16.58;;;11.30;99.90;;;;;;5054280;28;20059;-74
2022/05/06 06:43:42;;;;;;;45.88;16.17;;;11.20;99.90;;;;;;5053099;28;20147;-74
2022/05/06 06:46:09;;;;;;;46.20;15.90;;;11.20;99.90;;;;;;5053909;28;20091;-74
2022/05/06 06:48:35;;;;;;;47.05;16.85;;;11.30;99.90;;;;;;5053287;28;20462;-75
2022/05/06 06:51:01;;;;;;;50.80;17.65;;;11.30;99.90;;;;;;5053727;28;20176;-75
2022/05/06 06:53:26;;;;;;;52.47;17.70;;;11.30;99.90;;;;;;5054622;28;20049;-75
2022/05/06 06:55:52;;;;;;;54.35;19.73;;;11.40;99.90;;;;;;5053649;28;20041;-76
2022/05/06 06:58:18;;;;;;;51.13;19.52;;;11.30;99.90;;;;;;5053987;28;20045;-75
2022/05/06 07:00:44;;;;;;;54.92;19.60;;;11.30;99.90;;;;;;5053688;28;20500;-75
2022/05/06 07:03:11;;;;;;;57.85;21.55;;;11.50;99.90;;;;;;5053922;28;20087;-75
2022/05/06 07:05:36;;;;;;;52.95;19.35;;;11.60;99.90;;;;;;5053189;28;20069;-75
2022/05/06 07:13:32;;;;;;;63.10;21.05;;;11.70;99.90;;;;;;5053938;28;20053;-75
2022/05/06 07:15:58;;;;;;;58.13;20.95;;;11.80;99.90;;;;;;5053285;28;20056;-75
2022/05/06 07:18:24;;;;;;;59.00;20.30;;;11.80;99.90;;;;;;5051813;28;20051;-76
2022/05/06 07:20:54;;;;;;;62.30;20.88;;;11.80;99.90;;;;;;5053132;28;20080;-74
2022/05/06 07:23:20;;;;;;;56.85;21.10;;;12.10;99.90;;;;;;5053959;28;20396;-75
2022/05/06 07:25:46;;;;;;;54.65;20.13;;;12.30;99.90;;;;;;5051451;28;20053;-75
2022/05/06 07:28:12;;;;;;;58.47;21.00;;;12.50;99.90;;;;;;5051933;28;20044;-75
2022/05/06 07:30:37;;;;;;;51.40;19.10;;;12.60;99.90;;;;;;5053671;28;20123;-76
2022/05/06 07:33:03;;;;;;;52.83;20.00;;;12.70;99.90;;;;;;5053438;28;20103;-75
2022/05/06 07:35:29;;;;;;;55.35;19.40;;;12.80;99.90;;;;;;5052583;28;20068;-75
2022/05/06 07:37:54;;;;;;;57.03;19.15;;;13.00;99.90;;;;;;5052766;28;20102;-74
2022/05/06 07:40:20;;;;;;;57.65;18.85;;;13.00;99.90;;;;;;5053533;28;20045;-74
2022/05/06 07:42:50;;;;;;;57.47;19.73;;;13.20;99.90;;;;;;5051580;28;20507;-75
2022/05/06 07:45:16;;;;;;;63.65;20.83;;;13.40;99.90;;;;;;5052960;28;20131;-74
2022/05/06 07:47:42;;;;;;;62.60;20.98;;;13.30;99.90;;;;;;5052025;28;20124;-74
2022/05/06 07:50:08;;;;;;;58.38;19.23;;;13.40;99.90;;;;;;5051388;28;20187;-75
2022/05/06 07:52:34;;;;;;;65.68;20.63;;;13.50;99.90;;;;;;5051556;28;20041;-75
2022/05/06 07:54:59;;;;;;;58.25;20.23;;;13.50;99.90;;;;;;5068118;28;20499;-75
2022/05/06 07:57:25;;;;;;;57.33;19.25;;;13.50;99.90;;;;;;5052650;28;20091;-74
2022/05/06 07:59:51;;;;;;;46.55;16.50;;;13.70;99.90;;;;;;5052510;28;20040;-75
2022/05/06 08:05:00;;;;;;;46.42;15.75;;;14.10;99.90;;;;;;5051819;28;20135;-75
2022/05/06 08:07:26;;;;;;;44.22;15.93;;;14.00;99.90;;;;;;5034462;28;20134;-74
2022/05/06 08:09:52;;;;;;;47.63;16.05;;;14.20;99.90;;;;;;5051810;28;20051;-74
2022/05/06 08:12:17;;;;;;;51.13;19.20;;;14.30;99.90;;;;;;5052380;28;20091;-76
2022/05/06 08:14:44;;;;;;;41.67;14.90;;;13.90;99.90;;;;;;5051426;28;20111;-74
2022/05/06 08:17:11;;;;;;;48.30;15.57;;;14.10;99.90;;;;;;5051760;28;20056;-75
2022/05/06 08:19:37;;;;;;;49.55;15.45;;;14.40;99.90;;;;;;5052098;28;20409;-74
2022/05/06 08:22:03;;;;;;;46.25;15.98;;;14.60;99.90;;;;;;5052881;28;20052;-75
2022/05/06 08:24:28;;;;;;;45.58;16.55;;;14.60;99.90;;;;;;5035359;28;20377;-75
2022/05/06 08:26:54;;;;;;;44.05;14.70;;;14.30;99.90;;;;;;5051278;28;20169;-75
2022/05/06 08:29:22;;;;;;;43.50;14.77;;;14.50;99.90;;;;;;5051245;28;20049;-75
2022/05/06 08:31:47;;;;;;;45.83;15.45;;;14.70;99.90;;;;;;5052665;28;20371;-75
2022/05/06 08:34:13;;;;;;;44.70;15.68;;;14.40;99.90;;;;;;5051019;28;20127;-77
2022/05/06 08:36:43;;;;;;;36.63;13.80;;;14.40;99.90;;;;;;5054584;28;20044;-75
2022/05/06 08:39:10;;;;;;;37.60;14.57;;;14.50;99.90;;;;;;5056109;28;20052;-75
2022/05/06 08:41:36;;;;;;;;;;;14.60;99.90;;;;;;5057206;28;20057;-76
2022/05/06 08:50:50;;;;;;;35.83;12.52;;;14.70;99.90;;;;;;5056335;28;20045;-74
2022/05/06 08:52:35;;;;;;;33.25;13.15;;;15.10;99.90;;;;;;5057129;28;20110;-75
2022/05/06 08:55:02;;;;;;;32.55;12.60;;;15.00;99.90;;;;;;5054736;28;20041;-75
2022/05/06 08:57:29;;;;;;;31.85;12.25;;;15.20;99.90;;;;;;5056406;28;20037;-75
2022/05/06 08:59:55;;;;;;;26.40;11.35;;;15.30;99.90;;;;;;5056012;28;20388;-75
2022/05/06 09:02:21;;;;;;;29.05;11.65;;;15.40;99.90;;;;;;5054612;28;20049;-75
2022/05/06 09:04:47;;;;;;;25.10;10.85;;;15.40;99.90;;;;;;5054495;28;20064;-75
2022/05/06 09:07:21;;;;;;;23.23;9.82;;;15.40;99.90;;;;;;5055846;28;20103;-74
2022/05/06 09:10:13;;;;;;;24.55;10.38;;;15.20;99.90;;;;;;5056032;28;20139;-76
2022/05/06 09:12:44;;;;;;;25.08;10.90;;;15.10;99.90;;;;;;5055716;28;20053;-75
2022/05/06 09:18:03;;;;;;;22.25;9.93;;;15.20;99.90;;;;;;5056367;28;20469;-76
2022/05/06 09:20:29;;;;;;;17.88;9.00;;;15.30;99.90;;;;;;5056060;28;20083;-74
2022/05/06 09:22:55;;;;;;;18.02;10.10;;;15.40;99.90;;;;;;5054539;28;20486;-74
2022/05/06 09:25:42;;;;;;;21.27;11.10;;;15.40;99.90;;;;;;5037861;28;20506;-76
2022/05/06 09:28:27;;;;;;;;;;;15.30;99.90;;;;;;5055628;28;20063;-75
2022/05/06 09:31:07;;;;;;;19.20;9.40;;;15.40;99.90;;;;;;5055600;28;20026;-76
2022/05/06 09:33:46;;;;;;;21.92;10.85;;;15.60;99.90;;;;;;5038388;28;20049;-75
2022/05/06 09:36:24;;;;;;;19.08;9.15;;;15.70;99.90;;;;;;5055218;28;20091;-76
2022/05/06 09:39:04;;;;;;;17.17;9.18;;;15.80;99.90;;;;;;5054058;28;20037;-75
2022/05/06 09:41:30;;;;;;;17.80;9.30;;;15.90;99.90;;;;;;5054599;28;20354;-76
2022/05/06 09:44:04;;;;;;;15.85;9.00;;;;;;;;;;5054669;28;20107;-75
2022/05/06 09:46:30;;;;;;;14.40;8.02;;;16.00;99.90;;;;;;5055540;28;20132;-74
2022/05/06 09:48:57;;;;;;;15.50;7.90;;;16.00;99.90;;;;;;5052952;28;20128;-74
2022/05/06 09:51:32;;;;;;;12.63;7.35;;;16.10;99.90;;;;;;5037653;28;20102;-75
2022/05/06 09:53:58;;;;;;;15.15;8.07;;;16.40;99.90;;;;;;5055824;28;20041;-76
2022/05/06 09:56:26;;;;;;;13.15;6.93;;;16.60;99.90;;;;;;5054768;28;20075;-77
2022/05/06 09:58:52;;;;;;;12.18;7.10;;;16.60;99.90;;;;;;5054831;28;20076;-76
2022/05/06 10:01:18;;;;;;;12.32;6.80;;;16.90;99.90;;;;;;5053380;28;20563;-76
2022/05/06 10:03:44;;;;;;;10.77;6.05;;;17.10;99.90;;;;;;5037270;28;20461;-76
2022/05/06 10:06:10;;;;;;;11.73;6.75;;;17.40;99.90;;;;;;5054474;28;20049;-76
2022/05/06 10:08:49;;;;;;;12.40;6.47;;;17.50;99.90;;;;;;5053837;28;20049;-76
2022/05/06 10:11:18;;;;;;;12.10;6.68;;;17.60;99.90;;;;;;5054436;28;20044;-76
2022/05/06 10:13:46;;;;;;;12.70;7.03;;;17.60;99.90;;;;;;5054788;28;20045;-77
2022/05/06 10:16:12;;;;;;;12.43;7.30;;;17.80;99.90;;;;;;5053344;28;20086;-76
2022/05/06 10:18:39;;;;;;;14.23;7.43;;;17.80;99.90;;;;;;5054470;28;20041;-76
2022/05/06 10:21:06;;;;;;;12.20;7.28;;;17.70;99.90;;;;;;5054234;28;20166;-76
2022/05/06 10:23:44;;;;;;;;;;;17.60;99.90;;;;;;5054928;28;20056;-75
2022/05/06 10:26:29;;;;;;;12.27;6.43;;;17.70;99.90;;;;;;5054725;28;20245;-75
2022/05/06 10:34:23;;;;;;;12.80;6.18;;;17.90;99.90;;;;;;5054693;28;20048;-76
2022/05/06 10:36:54;;;;;;;10.95;6.90;;;17.80;99.90;;;;;;5036733;28;20071;-74
2022/05/06 10:39:20;;;;;;;9.88;5.70;;;17.80;99.90;;;;;;5054212;28;20112;-76
2022/05/06 10:42:09;;;;;;;10.23;4.70;;;17.90;99.90;;;;;;5054180;28;20052;-75
2022/05/06 10:44:38;;;;;;;10.05;5.05;;;18.10;99.90;;;;;;5052966;28;20497;-76
2022/05/06 10:47:13;;;;;;;11.48;5.72;;;18.00;99.90;;;;;;5054475;28;20056;-76
2022/05/06 10:49:39;;;;;;;10.55;6.25;;;18.10;99.90;;;;;;5054364;28;20053;-78
2022/05/06 10:52:28;;;;;;;9.90;6.40;;;17.80;99.90;;;;;;5052989;28;20389;-77
2022/05/06 10:55:03;;;;;;;11.93;6.50;;;17.90;99.90;;;;;;5044557;28;20064;-76
2022/05/06 10:57:45;;;;;;;11.55;7.05;;;17.90;99.90;;;;;;5052487;28;20528;-75
2022/05/06 11:00:11;;;;;;;12.38;7.63;;;17.90;99.90;;;;;;5052524;28;20101;-77
2022/05/06 11:02:38;;;;;;;12.20;6.82;;;17.80;99.90;;;;;;5054513;28;20431;-75
2022/05/06 11:05:12;;;;;;;13.02;7.53;;;17.80;99.90;;;;;;5054260;28;20136;-75
2022/05/06 11:07:39;;;;;;;10.50;6.82;;;18.00;99.90;;;;;;5053760;28;20098;-77
2022/05/06 11:10:17;;;;;;;13.30;6.80;;;18.10;99.90;;;;;;5052337;28;20049;-76
2022/05/06 11:12:52;;;;;;;8.40;4.38;;;18.20;99.90;;;;;;5053819;28;20180;-77
2022/05/06 11:15:21;;;;;;;9.07;5.57;;;18.30;99.90;;;;;;5053617;28;20041;-75
2022/05/06 11:17:48;;;;;;;11.68;5.90;;;18.30;99.90;;;;;;5052669;28;20052;-76
2022/05/06 11:20:14;;;;;;;10.15;6.20;;;18.30;99.90;;;;;;5053496;28;20508;-76
2022/05/06 11:22:53;;;;;;;11.90;6.73;;;18.60;99.90;;;;;;5053347;28;20559;-76
2022/05/06 11:25:20;;;;;;;10.15;5.57;;;18.70;99.90;;;;;;5035978;28;20142;-77
2022/05/06 11:27:46;;;;;;;8.55;4.35;;;18.80;99.90;;;;;;5052084;28;20049;-77
2022/05/06 11:30:17;;;;;;;8.93;4.47;;;18.80;99.90;;;;;;5052580;28;20076;-77
2022/05/06 11:32:48;;;;;;;7.85;5.00;;;18.80;99.90;;;;;;5053717;28;20049;-75
2022/05/06 11:35:19;;;;;;;9.23;4.90;;;18.80;99.90;;;;;;5053154;28;20453;-75
2022/05/06 11:37:45;;;;;;;12.77;5.32;;;18.80;99.90;;;;;;5053503;28;20084;-76
2022/05/06 11:43:24;;;;;;;7.90;4.53;;;18.90;99.90;;;;;;5051891;28;20093;-77
2022/05/06 11:48:45;;;;;;;8.45;3.72;;;19.10;99.90;;;;;;5053359;28;20450;-75
2022/05/06 11:51:14;;;;;;;7.03;3.80;;;19.00;99.00;;;;;;5052844;28;20163;-76
2022/05/06 11:53:42;;;;;;;7.70;3.88;;;19.00;97.00;;;;;;5052624;28;20049;-75
2022/05/06 11:56:09;;;;;;;9.50;4.38;;;19.10;99.50;;;;;;5051487;28;20124;-75
2022/05/06 11:58:36;;;;;;;9.63;4.65;;;19.20;99.80;;;;;;5051246;28;20049;-76
2022/05/06 12:01:02;;;;;;;9.52;5.00;;;19.20;98.80;;;;;;5052779;28;20152;-77
2022/05/06 12:03:31;;;;;;;11.03;4.07;;;19.20;99.00;;;;;;5053565;28;20140;-75
2022/05/06 12:06:08;;;;;;;9.48;3.80;;;19.20;99.70;;;;;;5052789;28;20048;-76
2022/05/06 12:08:36;;;;;;;8.27;3.08;;;19.30;99.00;;;;;;5051527;28;20094;-78
2022/05/06 12:11:04;;;;;;;8.15;3.20;;;19.40;96.70;;;;;;5050817;28;20044;-77
2022/05/06 12:13:40;;;;;;;14.13;4.57;;;19.50;97.60;;;;;;5052483;28;20112;-75
2022/05/06 12:16:11;;;;;;;10.93;5.18;;;19.50;96.50;;;;;;5052040;28;20430;-77
2022/05/06 12:18:38;;;;;;;11.27;5.32;;;19.40;96.30;;;;;;5052689;28;20132;-77
2022/05/06 12:21:21;;;;;;;11.10;4.97;;;19.30;95.10;;;;;;5052871;28;20162;-77
2022/05/06 12:23:58;;;;;;;10.63;5.38;;;19.30;97.90;;;;;;5052599;28;20049;-76
2022/05/06 12:26:35;;;;;;;8.55;4.38;;;19.40;96.10;;;;;;5052388;28;20044;-77
2022/05/06 12:29:02;;;;;;;12.10;5.43;;;19.40;97.40;;;;;;5051665;28;20056;-76
2022/05/06 12:31:30;;;;;;;12.38;5.43;;;19.60;97.60;;;;;;5051178;28;20049;-77
2022/05/06 12:34:09;;;;;;;12.60;5.38;;;19.60;97.30;;;;;;5052304;28;20509;-77
2022/05/06 12:36:37;;;;;;;17.35;5.40;;;19.70;97.30;;;;;;5051231;28;20500;-76
2022/05/06 12:39:20;;;;;;;11.82;5.38;;;19.80;96.10;;;;;;5034447;28;20045;-75
2022/05/06 12:41:46;;;;;;;11.98;5.22;;;19.80;96.50;;;;;;5052295;28;20504;-77
2022/05/06 12:44:24;;;;;;;7.68;2.83;;;20.00;97.50;;;;;;5052245;28;20052;-75
2022/05/06 12:46:51;;;;;;;7.25;2.90;;;19.90;91.60;;;;;;5051090;28;20083;-75
2022/05/06 12:52:04;;;;;;;10.48;4.57;;;19.80;93.00;;;;;;5051133;28;20048;-76
2022/05/06 12:54:30;;;;;;;10.93;4.68;;;19.90;94.00;;;;;;5050965;28;20169;-77
2022/05/06 12:56:57;;;;;;;13.63;4.22;;;20.00;94.80;;;;;;5052310;28;20052;-78
2022/05/06 12:59:23;;;;;;;17.48;4.45;;;20.10;95.20;;;;;;5052607;28;20047;-77
2022/05/06 13:01:50;;;;;;;8.35;3.72;;;20.20;94.40;;;;;;5051291;28;20484;-76
2022/05/06 13:04:16;;;;;;;9.85;3.72;;;20.30;94.50;;;;;;5051309;28;20081;-75
2022/05/06 13:06:42;;;;;;;11.73;3.60;;;20.30;93.00;;;;;;5051851;28;20098;-76
2022/05/06 13:09:09;;;;;;;12.27;4.70;;;20.30;93.10;;;;;;5050954;28;20049;-76
2022/05/06 13:11:34;;;;;;;10.82;4.53;;;20.40;92.90;;;;;;5017437;28;20128;-75
2022/05/06 13:14:00;;;;;;;10.53;4.20;;;20.30;92.70;;;;;;5050592;28;20132;-76
2022/05/06 13:16:27;;;;;;;7.83;3.87;;;20.30;92.80;;;;;;5067656;28;20400;-75
2022/05/06 13:18:53;;;;;;;9.95;4.18;;;20.10;92.50;;;;;;5017367;28;20053;-75
2022/05/06 13:21:20;;;;;;;7.77;3.23;;;20.20;92.70;;;;;;5051593;28;20212;-75
2022/05/06 13:23:46;;;;;;;9.45;3.28;;;20.10;92.30;;;;;;5054550;28;20423;-75
2022/05/06 13:26:11;;;;;;;9.27;3.90;;;19.90;90.80;;;;;;5037639;28;20041;-76
2022/05/06 13:28:37;;;;;;;6.83;2.97;;;20.10;92.40;;;;;;5055342;28;20052;-75
2022/05/06 13:31:03;;;;;;;8.03;2.57;;;20.10;92.40;;;;;;5055725;28;20128;-75